Time;durP1;ratioP1;P1;durP2;ratioP2;P2;SDS_P1;SDS_P2;PMS_P1;PMS_P2;Temp;Humidity;BMP_temperature;BMP_pressure;BME280_temperature;BME280_humidity;BME280_pressure;Samples;Min_cycle;Max_cycle;Signal;HPM_P1;HPM_P2
2022/07/24 00:00:10;;;;;;;;;;;32.00;43.40;;;;;;667769;29;1470;-90
2022/07/24 00:00:31;;;;;;;;;;;32.00;41.40;;;;;;665870;29;1237;-90
2022/07/24 00:00:52;;;;;;;;;;;32.00;39.20;;;;;;668272;29;1389;-88
2022/07/24 00:01:18;;;;;;;;;;;32.20;41.60;;;;;;669372;29;1364;-88
2022/07/24 00:01:39;;;;;;;;;;;32.40;37.70;;;;;;667133;29;1275;-92
2022/07/24 00:02:17;;;;;;;;;;;32.10;44.30;;;;;;667675;29;1249;-94
2022/07/24 00:02:40;;;;;;;;;;;32.20;37.80;;;;;;663421;29;1178;-89
2022/07/24 00:03:01;;;;;;;;;;;31.20;42.10;;;;;;664976;29;1291;-92
2022/07/24 00:03:22;;;;;;;;;;;32.60;43.50;;;;;;666935;29;1239;-88
2022/07/24 00:03:42;;;;;;;;;;;32.00;43.60;;;;;;669192;29;1278;-86
2022/07/24 00:04:04;;;;;;;;;;;32.00;44.30;;;;;;667695;29;898;-92
2022/07/24 00:04:25;;;;;;;;;;;31.90;40.00;;;;;;666563;29;1338;-91
2022/07/24 00:04:56;;;;;;;;;;;32.10;39.60;;;;;;665362;29;1255;-87
2022/07/24 00:05:16;;;;;;;;;;;32.20;37.60;;;;;;666580;29;1147;-89
2022/07/24 00:05:37;;;;;;;;;;;32.10;43.70;;;;;;666981;29;1966;-89
2022/07/24 00:06:25;;;;;;;;;;;32.30;39.80;;;;;;664847;29;1790;-93
2022/07/24 00:06:46;;;;;;;;;;;32.00;37.60;;;;;;664915;29;1896;-88
2022/07/24 00:07:09;;;;;;;;;;;31.70;46.50;;;;;;663316;29;1821;-91
2022/07/24 00:07:29;;;;;;;;;;;32.20;44.50;;;;;;662456;29;1724;-89
2022/07/24 00:07:53;;;;;;;;;;;32.00;40.50;;;;;;663794;29;1370;-90
2022/07/24 00:08:13;;;;;;;;;;;32.30;46.90;;;;;;662619;29;1186;-90
2022/07/24 00:08:34;;;;;;;;;;;31.90;42.30;;;;;;663431;29;1376;-89
2022/07/24 00:08:55;;;;;;;;;;;30.60;41.90;;;;;;663333;29;1625;-90
2022/07/24 00:09:15;;;;;;;;;;;31.90;42.60;;;;;;664351;29;1233;-89
2022/07/24 00:09:36;;;;;;;;;;;31.90;41.30;;;;;;663215;29;1374;-88
2022/07/24 00:09:56;;;;;;;;;;;31.90;43.40;;;;;;662465;29;1282;-90
2022/07/24 00:10:17;;;;;;;;;;;31.90;42.40;;;;;;664860;29;1226;-89
2022/07/24 00:10:38;;;;;;;;;;;32.20;41.30;;;;;;664991;29;1217;-89
2022/07/24 00:10:58;;;;;;;;;;;31.90;44.90;;;;;;665212;29;1331;-89
2022/07/24 00:11:19;;;;;;;;;;;32.60;43.00;;;;;;662638;29;1325;-89
2022/07/24 00:11:43;;;;;;;;;;;30.00;42.00;;;;;;661789;29;1250;-91
2022/07/24 00:12:04;;;;;;;;;;;32.40;41.50;;;;;;662530;29;1241;-93
2022/07/24 00:12:34;;;;;;;;;;;32.10;38.60;;;;;;662898;29;1207;-91
2022/07/24 00:12:55;;;;;;;;;;;32.60;37.60;;;;;;666870;29;1644;-89
2022/07/24 00:13:16;;;;;;;;;;;31.90;43.40;;;;;;667074;29;1188;-89
2022/07/24 00:13:39;;;;;;;;;;;31.90;41.40;;;;;;667835;29;1368;-90
2022/07/24 00:14:00;;;;;;;;;;;32.20;41.30;;;;;;667202;29;1224;-92
2022/07/24 00:14:21;;;;;;;;;;;31.90;46.60;;;;;;665288;29;1353;-90
2022/07/24 00:14:41;;;;;;;;;;;31.90;44.80;;;;;;665243;29;1332;-92
2022/07/24 00:15:05;;;;;;;;;;;32.00;45.10;;;;;;666048;29;1343;-88
2022/07/24 00:15:30;;;;;;;;;;;31.90;38.50;;;;;;668015;29;1143;-91
2022/07/24 00:15:51;;;;;;;;;;;31.90;40.40;;;;;;665707;29;1125;-90
2022/07/24 00:16:12;;;;;;;;;;;32.40;45.70;;;;;;664855;29;1516;-90
2022/07/24 00:16:32;;;;;;;;;;;32.10;45.30;;;;;;665600;29;1269;-90
2022/07/24 00:16:53;;;;;;;;;;;32.10;44.30;;;;;;667065;29;1316;-90
2022/07/24 00:17:14;;;;;;;;;;;32.10;44.70;;;;;;665980;29;1378;-94
2022/07/24 00:17:34;;;;;;;;;;;32.10;45.30;;;;;;665121;29;1185;-91
2022/07/24 00:17:55;;;;;;;;;;;32.10;42.40;;;;;;665466;29;1321;-91
2022/07/24 00:18:15;;;;;;;;;;;31.90;45.20;;;;;;667666;29;1330;-90
2022/07/24 00:18:36;;;;;;;;;;;32.20;42.60;;;;;;670534;29;1247;-90
2022/07/24 00:18:57;;;;;;;;;;;31.90;42.00;;;;;;670134;29;1307;-89
2022/07/24 00:19:17;;;;;;;;;;;32.00;41.90;;;;;;667820;29;1241;-92
2022/07/24 00:19:38;;;;;;;;;;;31.90;41.70;;;;;;669897;29;1100;-91
2022/07/24 00:20:02;;;;;;;;;;;31.90;44.20;;;;;;670225;29;1371;-93
2022/07/24 00:20:23;;;;;;;;;;;32.40;37.80;;;;;;668194;29;1152;-94
2022/07/24 00:20:45;;;;;;;;;;;31.90;45.10;;;;;;669661;29;1245;-93
2022/07/24 00:21:09;;;;;;;;;;;32.00;47.20;;;;;;671269;29;1126;-91
2022/07/24 00:21:49;;;;;;;;;;;31.90;41.70;;;;;;666499;29;1363;-93
2022/07/24 00:22:09;;;;;;;;;;;31.50;37.10;;;;;;667730;29;1317;-91
2022/07/24 00:22:36;;;;;;;;;;;32.30;43.30;;;;;;668304;29;1240;-91
2022/07/24 00:22:56;;;;;;;;;;;33.80;38.90;;;;;;670583;29;1237;-92
2022/07/24 00:23:17;;;;;;;;;;;31.90;44.00;;;;;;670312;29;1359;-91
2022/07/24 00:23:43;;;;;;;;;;;32.10;44.60;;;;;;669968;29;1307;-92
2022/07/24 00:24:11;;;;;;;;;;;31.50;37.10;;;;;;667677;29;1242;-93
2022/07/24 00:24:35;;;;;;;;;;;31.80;40.70;;;;;;666845;29;1123;-90
2022/07/24 00:24:58;;;;;;;;;;;31.90;44.50;;;;;;667755;29;1197;-93
2022/07/24 00:25:18;;;;;;;;;;;32.10;42.10;;;;;;667680;29;1478;-91
2022/07/24 00:25:39;;;;;;;;;;;32.10;46.40;;;;;;670123;29;1964;-91
2022/07/24 00:26:00;;;;;;;;;;;31.90;44.30;;;;;;672112;29;1467;-91
2022/07/24 00:26:21;;;;;;;;;;;32.30;45.70;;;;;;671931;29;1456;-90
2022/07/24 00:26:46;;;;;;;;;;;34.50;48.70;;;;;;666006;29;1436;-90
2022/07/24 00:27:09;;;;;;;;;;;31.90;40.10;;;;;;665524;29;1327;-91
2022/07/24 00:27:32;;;;;;;;;;;32.20;45.70;;;;;;665158;29;1340;-91
2022/07/24 00:27:53;;;;;;;;;;;32.20;41.60;;;;;;665275;29;1276;-93
2022/07/24 00:28:14;;;;;;;;;;;31.90;43.00;;;;;;664843;29;1315;-92
2022/07/24 00:28:35;;;;;;;;;;;32.00;42.10;;;;;;666771;29;1112;-93
2022/07/24 00:28:55;;;;;;;;;;;32.30;44.60;;;;;;667622;29;1236;-91
2022/07/24 00:29:17;;;;;;;;;;;32.00;48.60;;;;;;667748;29;1401;-93
2022/07/24 00:29:37;;;;;;;;;;;32.20;42.50;;;;;;665409;29;1334;-91
2022/07/24 00:29:58;;;;;;;;;;;31.90;42.10;;;;;;665384;29;1388;-92
2022/07/24 00:30:19;;;;;;;;;;;34.30;46.60;;;;;;665415;29;1492;-92
2022/07/24 00:30:40;;;;;;;;;;;32.30;47.80;;;;;;665360;29;1324;-92
2022/07/24 00:31:00;;;;;;;;;;;32.00;42.40;;;;;;666062;29;1332;-92
2022/07/24 00:31:21;;;;;;;;;;;32.40;42.10;;;;;;665811;29;1427;-91
2022/07/24 00:31:41;;;;;;;;;;;32.30;44.10;;;;;;667965;29;1236;-92
2022/07/24 00:32:02;;;;;;;;;;;32.30;46.70;;;;;;668282;29;1381;-93
2022/07/24 00:32:23;;;;;;;;;;;32.30;42.30;;;;;;668071;29;1237;-92
2022/07/24 00:32:43;;;;;;;;;;;32.10;45.10;;;;;;667943;29;1372;-92
2022/07/24 00:33:04;;;;;;;;;;;32.30;44.40;;;;;;668066;29;1303;-92
2022/07/24 00:33:25;;;;;;;;;;;32.10;43.70;;;;;;668594;29;1417;-91
2022/07/24 00:33:48;;;;;;;;;;;30.20;43.20;;;;;;668218;29;1273;-93
2022/07/24 00:34:08;;;;;;;;;;;31.90;41.50;;;;;;665674;29;1247;-89
2022/07/24 00:34:29;;;;;;;;;;;32.30;44.70;;;;;;665777;29;1289;-92
2022/07/24 00:34:50;;;;;;;;;;;31.90;47.10;;;;;;666404;29;1241;-92
2022/07/24 00:35:12;;;;;;;;;;;32.20;44.10;;;;;;668100;29;1232;-91
2022/07/24 00:35:33;;;;;;;;;;;31.90;41.10;;;;;;668839;29;824;-89
2022/07/24 00:35:54;;;;;;;;;;;31.90;42.30;;;;;;671156;29;1216;-91
2022/07/24 00:36:15;;;;;;;;;;;31.90;39.50;;;;;;670050;29;1187;-90
2022/07/24 00:36:35;;;;;;;;;;;31.90;38.60;;;;;;665803;29;1778;-90
2022/07/24 00:36:56;;;;;;;;;;;31.90;41.60;;;;;;666092;29;1739;-89
2022/07/24 00:37:16;;;;;;;;;;;31.90;45.40;;;;;;668029;29;1746;-91
2022/07/24 00:37:37;;;;;;;;;;;31.90;44.00;;;;;;666659;29;1415;-91
2022/07/24 00:37:58;;;;;;;;;;;32.00;43.50;;;;;;668394;29;1288;-91
2022/07/24 00:38:18;;;;;;;;;;;32.00;41.00;;;;;;668578;29;1411;-91
2022/07/24 00:38:39;;;;;;;;;;;31.90;41.20;;;;;;669955;29;1536;-89
2022/07/24 00:38:59;;;;;;;;;;;31.90;39.20;;;;;;670471;29;1240;-91
2022/07/24 00:39:20;;;;;;;;;;;31.90;40.00;;;;;;670264;29;1485;-92
2022/07/24 00:39:41;;;;;;;;;;;31.90;42.00;;;;;;668109;29;1223;-90
2022/07/24 00:40:01;;;;;;;;;;;32.60;44.00;;;;;;665688;29;1214;-90
2022/07/24 00:40:22;;;;;;;;;;;31.90;41.30;;;;;;665552;29;1332;-90
2022/07/24 00:40:42;;;;;;;;;;;31.90;43.30;;;;;;663574;29;1237;-91
2022/07/24 00:41:03;;;;;;;;;;;31.90;42.20;;;;;;662939;29;1325;-91
2022/07/24 00:41:24;;;;;;;;;;;31.90;39.70;;;;;;663211;29;1315;-90
2022/07/24 00:41:44;;;;;;;;;;;31.90;43.60;;;;;;666786;29;1559;-92
2022/07/24 00:42:05;;;;;;;;;;;31.90;43.40;;;;;;670456;29;1350;-93
2022/07/24 00:42:25;;;;;;;;;;;31.90;42.90;;;;;;665818;29;1276;-92
2022/07/24 00:42:46;;;;;;;;;;;32.10;43.00;;;;;;668004;29;1201;-90
2022/07/24 00:43:07;;;;;;;;;;;32.10;39.90;;;;;;668163;29;936;-89
2022/07/24 00:43:28;;;;;;;;;;;31.90;40.40;;;;;;668011;29;1200;-90
2022/07/24 00:43:59;;;;;;;;;;;28.70;38.40;;;;;;665613;29;1181;-90
2022/07/24 00:44:20;;;;;;;;;;;31.90;37.60;;;;;;663196;29;1383;-89
2022/07/24 00:44:42;;;;;;;;;;;31.90;42.50;;;;;;665368;29;1337;-89
2022/07/24 00:45:05;;;;;;;;;;;32.10;41.60;;;;;;663196;29;1411;-90
2022/07/24 00:45:26;;;;;;;;;;;31.90;38.70;;;;;;667126;29;1213;-89
2022/07/24 00:45:46;;;;;;;;;;;32.20;44.20;;;;;;667740;29;1903;-89
2022/07/24 00:46:07;;;;;;;;;;;32.00;42.20;;;;;;666313;29;1403;-95
2022/07/24 00:51:18;;;;;;;;;;;32.30;38.10;;;;;;673641;29;1061;-93
2022/07/24 00:51:40;;;;;;;;;;;32.10;42.60;;;;;;673547;29;1360;-94
2022/07/24 00:56:38;;;;;;;;;;;32.00;38.40;;;;;;676157;29;1388;-90
2022/07/24 00:57:00;;;;;;;;;;;30.50;37.10;;;;;;675548;29;1266;-89
2022/07/24 00:57:21;;;;;;;;;;;32.00;46.10;;;;;;672919;29;1188;-88
2022/07/24 00:57:45;;;;;;;;;;;32.20;41.00;;;;;;670515;29;1129;-89
2022/07/24 00:58:06;;;;;;;;;;;32.00;43.50;;;;;;670774;29;1227;-90
2022/07/24 00:58:30;;;;;;;;;;;32.40;48.80;;;;;;670352;29;1284;-89
2022/07/24 00:58:50;;;;;;;;;;;32.40;42.00;;;;;;671829;29;1289;-89
2022/07/24 00:59:21;;;;;;;;;;;;;;;;;;;;;
2022/07/24 00:59:48;;;;;;;;;;;32.20;44.50;;;;;;675835;29;1252;-91
2022/07/24 01:00:10;;;;;;;;;;;30.00;36.70;;;;;;673390;29;1343;-90
2022/07/24 01:00:30;;;;;;;;;;;32.00;41.00;;;;;;672990;29;1145;-88
2022/07/24 01:00:54;;;;;;;;;;;29.30;41.80;;;;;;670539;29;1204;-90
2022/07/24 01:01:15;;;;;;;;;;;31.00;46.50;;;;;;673312;29;836;-88
2022/07/24 01:01:38;;;;;;;;;;;32.10;43.10;;;;;;673043;29;1589;-89
2022/07/24 01:02:02;;;;;;;;;;;32.00;38.20;;;;;;670458;29;1529;-88
2022/07/24 01:02:28;;;;;;;;;;;32.10;41.40;;;;;;672849;29;1442;-90
2022/07/24 01:02:49;;;;;;;;;;;29.50;36.20;;;;;;672781;29;1358;-89
2022/07/24 01:03:18;;;;;;;;;;;31.90;39.40;;;;;;670163;29;1259;-89
2022/07/24 01:03:42;;;;;;;;;;;32.10;42.40;;;;;;670299;29;1212;-88
2022/07/24 01:04:03;;;;;;;;;;;32.70;38.50;;;;;;667976;29;1196;-89
2022/07/24 01:04:29;;;;;;;;;;;32.30;40.30;;;;;;667835;29;1296;-89
2022/07/24 01:04:49;;;;;;;;;;;31.80;41.00;;;;;;668431;29;1401;-88
2022/07/24 01:05:10;;;;;;;;;;;32.10;46.00;;;;;;668035;29;1468;-89
2022/07/24 01:05:36;;;;;;;;;;;32.10;43.10;;;;;;668994;29;1267;-89
2022/07/24 01:06:05;;;;;;;;;;;32.30;38.30;;;;;;670346;29;1574;-88
2022/07/24 01:06:26;;;;;;;;;;;32.30;44.00;;;;;;669945;29;1282;-89
2022/07/24 01:06:50;;;;;;;;;;;29.40;46.30;;;;;;670908;29;1230;-88
2022/07/24 01:07:11;;;;;;;;;;;32.40;41.50;;;;;;671989;29;1183;-90
2022/07/24 01:07:34;;;;;;;;;;;32.20;40.30;;;;;;671216;29;1312;-89
2022/07/24 01:08:03;;;;;;;;;;;32.10;42.00;;;;;;672205;29;1445;-89
2022/07/24 01:08:24;;;;;;;;;;;32.20;38.20;;;;;;669831;29;1267;-90
2022/07/24 01:08:54;;;;;;;;;;;31.60;45.80;;;;;;667742;29;1262;-89
2022/07/24 01:09:15;;;;;;;;;;;32.50;42.70;;;;;;665625;29;1335;-90
2022/07/24 01:09:38;;;;;;;;;;;32.00;41.70;;;;;;665129;29;1346;-89
2022/07/24 01:09:59;;;;;;;;;;;32.30;40.90;;;;;;665308;29;1244;-89
2022/07/24 01:10:25;;;;;;;;;;;32.10;43.10;;;;;;665145;29;1269;-88
2022/07/24 01:10:50;;;;;;;;;;;31.40;37.60;;;;;;670787;29;1288;-90
2022/07/24 01:11:14;;;;;;;;;;;32.00;40.90;;;;;;667494;29;1301;-90
2022/07/24 01:11:43;;;;;;;;;;;28.40;37.50;;;;;;667856;29;1127;-90
2022/07/24 01:12:04;;;;;;;;;;;33.40;39.00;;;;;;665090;29;1360;-91
2022/07/24 01:12:29;;;;;;;;;;;32.30;41.70;;;;;;665283;29;1189;-89
2022/07/24 01:12:52;;;;;;;;;;;32.40;43.70;;;;;;668096;29;1394;-88
2022/07/24 01:13:16;;;;;;;;;;;32.30;40.50;;;;;;671005;29;1292;-90
2022/07/24 01:14:33;;;;;;;;;;;30.80;37.20;;;;;;671508;29;1180;-89
2022/07/24 01:14:54;;;;;;;;;;;31.50;37.60;;;;;;671069;29;1361;-91
2022/07/24 01:15:26;;;;;;;;;;;35.80;48.20;;;;;;668937;29;1264;-90
2022/07/24 01:15:47;;;;;;;;;;;32.50;42.80;;;;;;671050;29;1149;-91
2022/07/24 01:16:17;;;;;;;;;;;32.20;43.30;;;;;;671133;29;1259;-89
2022/07/24 01:16:38;;;;;;;;;;;32.60;42.70;;;;;;671371;29;1133;-90
2022/07/24 01:16:59;;;;;;;;;;;32.00;40.00;;;;;;673788;29;1485;-90
2022/07/24 01:17:20;;;;;;;;;;;32.20;44.70;;;;;;673333;29;1149;-89
2022/07/24 01:17:41;;;;;;;;;;;33.60;44.90;;;;;;670698;29;1443;-89
2022/07/24 01:18:04;;;;;;;;;;;28.60;37.10;;;;;;668064;29;1152;-89
2022/07/24 01:18:30;;;;;;;;;;;32.10;43.30;;;;;;665605;29;1374;-90
2022/07/24 01:18:53;;;;;;;;;;;29.30;36.10;;;;;;667041;29;1442;-90
2022/07/24 01:19:17;;;;;;;;;;;31.60;37.70;;;;;;669372;29;1270;-91
2022/07/24 01:19:38;;;;;;;;;;;32.40;47.00;;;;;;670103;29;1180;-89
2022/07/24 01:20:01;;;;;;;;;;;32.40;43.80;;;;;;670654;29;1357;-90
2022/07/24 01:20:29;;;;;;;;;;;30.40;40.50;;;;;;670622;29;1265;-89
2022/07/24 01:20:55;;;;;;;;;;;32.30;48.20;;;;;;668690;29;1173;-90
2022/07/24 01:21:30;;;;;;;;;;;32.20;42.60;;;;;;670345;29;1489;-89
2022/07/24 01:21:54;;;;;;;;;;;29.00;36.10;;;;;;670299;29;1262;-89
2022/07/24 01:22:18;;;;;;;;;;;32.00;40.90;;;;;;666972;29;1328;-90
2022/07/24 01:22:41;;;;;;;;;;;32.10;41.50;;;;;;667084;29;1157;-89
2022/07/24 01:23:01;;;;;;;;;;;32.10;43.00;;;;;;668074;29;1181;-89
2022/07/24 01:23:27;;;;;;;;;;;31.90;45.30;;;;;;670071;29;1210;-89
2022/07/24 01:23:49;;;;;;;;;;;32.80;42.00;;;;;;670385;29;1321;-90
2022/07/24 01:24:10;;;;;;;;;;;32.00;41.70;;;;;;669574;29;1352;-90
2022/07/24 01:24:31;;;;;;;;;;;32.60;50.70;;;;;;667580;29;1244;-87
2022/07/24 01:24:54;;;;;;;;;;;32.10;43.30;;;;;;667816;29;1248;-89
2022/07/24 01:25:14;;;;;;;;;;;31.90;37.10;;;;;;665272;29;1191;-89
2022/07/24 01:25:35;;;;;;;;;;;32.10;37.30;;;;;;665133;29;1897;-90
2022/07/24 01:25:56;;;;;;;;;;;32.30;46.90;;;;;;665875;29;1387;-90
2022/07/24 01:26:16;;;;;;;;;;;31.90;37.00;;;;;;668529;29;1242;-89
2022/07/24 01:26:37;;;;;;;;;;;32.00;37.20;;;;;;668511;29;1149;-89
2022/07/24 01:27:07;;;;;;;;;;;32.00;37.50;;;;;;670497;29;1232;-90
2022/07/24 01:27:28;;;;;;;;;;;33.80;46.70;;;;;;667866;29;1397;-87
2022/07/24 01:27:58;;;;;;;;;;;36.60;40.80;;;;;;667785;29;1181;-89
2022/07/24 01:28:31;;;;;;;;;;;31.90;37.20;;;;;;665595;29;1314;-89
2022/07/24 01:28:55;;;;;;;;;;;31.90;37.20;;;;;;665411;29;1376;-89
2022/07/24 01:29:21;;;;;;;;;;;31.90;40.70;;;;;;668226;29;1431;-89
2022/07/24 01:29:44;;;;;;;;;;;31.90;37.10;;;;;;671910;29;1268;-89
2022/07/24 01:30:16;;;;;;;;;;;28.80;36.10;;;;;;670382;29;1110;-88
2022/07/24 01:30:37;;;;;;;;;;;32.00;37.20;;;;;;667924;29;1190;-89
2022/07/24 01:30:57;;;;;;;;;;;31.90;37.20;;;;;;667839;29;1161;-88
2022/07/24 01:31:18;;;;;;;;;;;31.90;37.20;;;;;;668356;29;1323;-88
2022/07/24 01:31:42;;;;;;;;;;;31.90;37.20;;;;;;667776;29;1382;-89
2022/07/24 01:32:02;;;;;;;;;;;30.60;36.70;;;;;;669885;29;1331;-90
2022/07/24 01:32:23;;;;;;;;;;;31.90;37.20;;;;;;671132;29;1362;-89
2022/07/24 01:32:44;;;;;;;;;;;28.40;34.60;;;;;;670403;29;1342;-90
2022/07/24 01:34:04;;;;;;;;;;;32.10;38.30;;;;;;670127;29;1103;-89
2022/07/24 01:34:25;;;;;;;;;;;31.90;37.20;;;;;;670374;29;1165;-90
2022/07/24 01:34:58;;;;;;;;;;;30.30;36.30;;;;;;670451;29;1107;-93
2022/07/24 01:36:32;;;;;;;;;;;31.90;37.30;;;;;;660161;29;1463;-91
2022/07/24 01:37:02;;;;;;;;;;;30.90;37.70;;;;;;662701;29;1301;-91
2022/07/24 01:37:26;;;;;;;;;;;31.90;37.40;;;;;;662707;29;1343;-90
2022/07/24 01:37:58;;;;;;;;;;;31.90;37.50;;;;;;659869;29;1196;-92
2022/07/24 01:38:45;;;;;;;;;;;32.30;38.50;;;;;;659984;29;1397;-91
2022/07/24 01:39:34;;;;;;;;;;;33.90;40.00;;;;;;652964;30;1302;-91
2022/07/24 01:40:00;;;;;;;;;;;31.90;37.60;;;;;;654408;30;1441;-91
2022/07/24 01:41:12;;;;;;;;;;;31.80;37.50;;;;;;648210;30;1458;-91
2022/07/24 01:41:37;;;;;;;;;;;31.90;38.00;;;;;;647996;30;1164;-90
2022/07/24 01:42:12;;;;;;;;;;;31.80;37.10;;;;;;642995;30;1218;-90
2022/07/24 01:42:46;;;;;;;;;;;;;;;;;;;;;
2022/07/24 01:43:14;;;;;;;;;;;31.90;37.40;;;;;;643401;30;1307;-91
2022/07/24 01:43:40;;;;;;;;;;;31.80;37.50;;;;;;645594;30;1425;-91
2022/07/24 01:44:10;;;;;;;;;;;31.80;37.30;;;;;;648194;30;1517;-90
2022/07/24 01:44:35;;;;;;;;;;;31.80;37.20;;;;;;648353;30;1245;-90
2022/07/24 01:45:01;;;;;;;;;;;31.90;37.30;;;;;;648422;30;1371;-91
2022/07/24 01:45:38;;;;;;;;;;;31.80;37.40;;;;;;647830;30;1342;-91
2022/07/24 01:46:02;;;;;;;;;;;31.80;37.30;;;;;;648057;30;1203;-92
2022/07/24 01:46:33;;;;;;;;;;;31.90;37.30;;;;;;648075;30;1082;-91
2022/07/24 01:47:07;;;;;;;;;;;31.90;37.20;;;;;;645831;30;1173;-90
2022/07/24 01:47:45;;;;;;;;;;;31.90;37.30;;;;;;647922;30;1286;-90
2022/07/24 01:48:17;;;;;;;;;;;31.90;37.10;;;;;;645336;30;1555;-92
2022/07/24 01:48:49;;;;;;;;;;;31.80;37.20;;;;;;643681;30;1340;-90
2022/07/24 01:50:00;;;;;;;;;;;31.80;37.60;;;;;;646115;30;1277;-86
2022/07/24 01:50:21;;;;;;;;;;;31.80;37.00;;;;;;645368;30;1293;-88
2022/07/24 01:50:50;;;;;;;;;;;31.80;36.90;;;;;;643286;30;1131;-88
2022/07/24 01:51:28;;;;;;;;;;;30.70;37.10;;;;;;647865;30;1322;-89
2022/07/24 01:51:58;;;;;;;;;;;31.80;37.00;;;;;;645747;30;1519;-89
2022/07/24 01:52:36;;;;;;;;;;;31.80;37.10;;;;;;645842;30;1259;-89
2022/07/24 01:53:32;;;;;;;;;;;31.80;37.20;;;;;;645193;30;1225;-89
2022/07/24 01:54:06;;;;;;;;;;;31.80;37.30;;;;;;643446;30;1316;-91
2022/07/24 01:54:29;;;;;;;;;;;31.80;37.00;;;;;;640996;30;1295;-89
2022/07/24 01:55:10;;;;;;;;;;;31.80;37.00;;;;;;641068;30;1229;-89
2022/07/24 01:55:30;;;;;;;;;;;31.80;37.00;;;;;;638466;31;1295;-88
2022/07/24 01:55:52;;;;;;;;;;;31.80;37.00;;;;;;636849;31;1244;-88
2022/07/24 01:56:12;;;;;;;;;;;31.50;36.90;;;;;;637990;31;2121;-89
2022/07/24 01:56:37;;;;;;;;;;;31.70;37.20;;;;;;638446;31;1329;-89
2022/07/24 01:56:58;;;;;;;;;;;31.80;37.10;;;;;;638418;30;1218;-89
2022/07/24 01:57:19;;;;;;;;;;;31.80;37.10;;;;;;639365;30;1117;-89
2022/07/24 01:57:49;;;;;;;;;;;31.80;36.80;;;;;;641052;30;1280;-90
2022/07/24 01:58:17;;;;;;;;;;;31.80;36.80;;;;;;640991;30;1182;-90
2022/07/24 01:58:39;;;;;;;;;;;31.70;36.80;;;;;;638604;31;1244;-90
2022/07/24 01:59:00;;;;;;;;;;;31.70;36.60;;;;;;636511;31;1170;-90
2022/07/24 01:59:23;;;;;;;;;;;31.70;36.60;;;;;;635905;31;1458;-90
2022/07/24 01:59:49;;;;;;;;;;;31.70;36.60;;;;;;638501;30;1376;-92
2022/07/24 02:00:17;;;;;;;;;;;31.70;36.60;;;;;;638839;31;1141;-89
2022/07/24 02:00:38;;;;;;;;;;;31.70;36.60;;;;;;640855;30;1238;-89
2022/07/24 02:01:04;;;;;;;;;;;34.70;38.80;;;;;;642737;30;1464;-89
2022/07/24 02:01:27;;;;;;;;;;;31.70;36.60;;;;;;645676;30;1391;-91
2022/07/24 02:01:50;;;;;;;;;;;31.70;36.70;;;;;;643321;30;1239;-89
2022/07/24 02:02:17;;;;;;;;;;;31.70;36.60;;;;;;638670;31;1135;-89
2022/07/24 02:02:38;;;;;;;;;;;31.60;36.60;;;;;;636472;30;1245;-90
2022/07/24 02:02:59;;;;;;;;;;;31.60;36.70;;;;;;636420;31;1214;-90
2022/07/24 02:03:20;;;;;;;;;;;;;;;;;;636631;31;1237;-90
2022/07/24 02:03:41;;;;;;;;;;;31.60;36.70;;;;;;638568;30;1241;-91
2022/07/24 02:04:04;;;;;;;;;;;31.60;36.90;;;;;;639864;30;1133;-89
2022/07/24 02:04:24;;;;;;;;;;;31.60;36.90;;;;;;641614;30;1263;-90
2022/07/24 02:04:50;;;;;;;;;;;31.60;36.90;;;;;;640613;30;1652;-91
2022/07/24 02:05:14;;;;;;;;;;;31.50;36.90;;;;;;640060;30;1150;-91
2022/07/24 02:05:35;;;;;;;;;;;31.50;36.90;;;;;;638571;31;1961;-91
2022/07/24 02:06:04;;;;;;;;;;;31.50;36.90;;;;;;636752;31;1257;-91
2022/07/24 02:06:30;;;;;;;;;;;31.50;36.90;;;;;;640912;30;1254;-90
2022/07/24 02:07:03;;;;;;;;;;;31.50;37.00;;;;;;641080;30;1346;-90
2022/07/24 02:07:27;;;;;;;;;;;31.50;37.00;;;;;;645525;30;1233;-91
2022/07/24 02:08:03;;;;;;;;;;;31.50;37.10;;;;;;644303;30;1397;-90
2022/07/24 02:08:33;;;;;;;;;;;31.50;37.10;;;;;;643305;30;1158;-92
2022/07/24 02:08:56;;;;;;;;;;;31.50;37.10;;;;;;638755;30;1331;-92
2022/07/24 02:09:25;;;;;;;;;;;31.50;37.10;;;;;;639724;30;1398;-90
2022/07/24 02:09:51;;;;;;;;;;;31.50;37.20;;;;;;636525;30;1182;-92
2022/07/24 02:10:17;;;;;;;;;;;31.50;37.20;;;;;;636429;30;1261;-90
2022/07/24 02:10:43;;;;;;;;;;;31.50;37.10;;;;;;636614;30;1253;-90
2022/07/24 02:11:04;;;;;;;;;;;31.50;37.10;;;;;;639013;30;1395;-91
2022/07/24 02:12:28;;;;;;;;;;;31.50;37.10;;;;;;641117;30;1347;-90
2022/07/24 02:13:00;;;;;;;;;;;31.60;37.10;;;;;;639001;30;1214;-91
2022/07/24 02:13:28;;;;;;;;;;;31.60;37.20;;;;;;639190;30;1163;-91
2022/07/24 02:13:53;;;;;;;;;;;31.50;37.20;;;;;;638601;30;1214;-91
2022/07/24 02:14:19;;;;;;;;;;;31.50;37.10;;;;;;646197;30;1134;-92
2022/07/24 02:14:42;;;;;;;;;;;31.60;37.20;;;;;;649520;30;1422;-91
2022/07/24 02:15:20;;;;;;;;;;;31.60;37.20;;;;;;650599;30;1117;-90
2022/07/24 02:15:50;;;;;;;;;;;31.60;37.10;;;;;;650297;30;1241;-91
2022/07/24 02:16:19;;;;;;;;;;;31.60;37.20;;;;;;648600;30;1248;-89
2022/07/24 02:16:42;;;;;;;;;;;31.50;37.10;;;;;;650432;30;1224;-90
2022/07/24 02:17:31;;;;;;;;;;;31.60;37.30;;;;;;653170;30;1298;-90
2022/07/24 02:17:53;;;;;;;;;;;31.60;37.30;;;;;;655137;30;1111;-88
2022/07/24 02:18:14;;;;;;;;;;;31.60;37.10;;;;;;652727;30;1328;-91
2022/07/24 02:18:34;;;;;;;;;;;31.60;37.30;;;;;;651116;30;1365;-90
2022/07/24 02:18:55;;;;;;;;;;;31.60;37.20;;;;;;649169;30;1254;-89
2022/07/24 02:19:23;;;;;;;;;;;31.60;37.30;;;;;;656478;30;1250;-89
2022/07/24 02:19:43;;;;;;;;;;;31.60;37.30;;;;;;661349;29;1211;-89
2022/07/24 02:20:05;;;;;;;;;;;31.70;37.30;;;;;;660129;30;1348;-90
2022/07/24 02:20:31;;;;;;;;;;;31.60;37.30;;;;;;661296;29;1340;-89
2022/07/24 02:20:52;;;;;;;;;;;31.50;38.30;;;;;;662386;29;1209;-88
2022/07/24 02:21:13;;;;;;;;;;;31.60;37.30;;;;;;662559;29;1083;-88
2022/07/24 02:21:33;;;;;;;;;;;31.70;37.40;;;;;;659002;30;1351;-88
2022/07/24 02:21:54;;;;;;;;;;;31.60;37.30;;;;;;657379;30;1243;-89
2022/07/24 02:22:17;;;;;;;;;;;31.70;37.40;;;;;;656052;30;1419;-89
2022/07/24 02:22:40;;;;;;;;;;;31.70;37.40;;;;;;655567;30;1459;-90
2022/07/24 02:23:01;;;;;;;;;;;31.60;37.30;;;;;;655273;30;1135;-88
2022/07/24 02:23:24;;;;;;;;;;;31.60;37.80;;;;;;653533;30;1239;-88
2022/07/24 02:23:44;;;;;;;;;;;31.70;37.50;;;;;;653925;30;1413;-89
2022/07/24 02:24:05;;;;;;;;;;;31.70;37.40;;;;;;655207;30;1137;-89
2022/07/24 02:24:26;;;;;;;;;;;31.60;37.40;;;;;;653506;30;1104;-88
2022/07/24 02:24:48;;;;;;;;;;;31.60;37.30;;;;;;655761;30;1331;-89
2022/07/24 02:25:12;;;;;;;;;;;31.60;37.40;;;;;;657585;30;1289;-88
2022/07/24 02:25:34;;;;;;;;;;;31.70;37.40;;;;;;660139;30;1463;-88
2022/07/24 02:25:58;;;;;;;;;;;31.70;37.40;;;;;;661285;29;1024;-88
2022/07/24 02:26:18;;;;;;;;;;;31.60;37.30;;;;;;662712;29;797;-88
2022/07/24 02:26:39;;;;;;;;;;;31.60;37.30;;;;;;662571;29;1242;-88
2022/07/24 02:26:59;;;;;;;;;;;31.70;37.40;;;;;;663089;29;1437;-87
2022/07/24 02:27:20;;;;;;;;;;;31.70;37.40;;;;;;665068;29;1237;-88
2022/07/24 02:27:41;;;;;;;;;;;31.70;37.40;;;;;;662543;29;1363;-88
2022/07/24 02:28:02;;;;;;;;;;;31.60;37.30;;;;;;662598;29;1193;-88
2022/07/24 02:28:22;;;;;;;;;;;31.70;37.40;;;;;;662852;29;1257;-87
2022/07/24 02:28:43;;;;;;;;;;;31.70;37.40;;;;;;664884;29;789;-87
2022/07/24 02:29:03;;;;;;;;;;;31.70;37.40;;;;;;662544;29;1387;-89
2022/07/24 02:29:24;;;;;;;;;;;31.70;37.40;;;;;;662391;29;1326;-89
2022/07/24 02:29:45;;;;;;;;;;;31.70;37.40;;;;;;662559;29;1308;-89
2022/07/24 02:30:09;;;;;;;;;;;31.70;37.40;;;;;;660105;30;1201;-88
2022/07/24 02:30:30;;;;;;;;;;;31.70;37.40;;;;;;657732;30;1143;-87
2022/07/24 02:30:51;;;;;;;;;;;31.70;37.40;;;;;;658377;30;1119;-88
2022/07/24 02:31:11;;;;;;;;;;;31.70;37.40;;;;;;660206;30;1222;-88
2022/07/24 02:31:35;;;;;;;;;;;31.70;37.40;;;;;;660438;29;1396;-88
2022/07/24 02:31:55;;;;;;;;;;;31.70;37.40;;;;;;668887;29;1359;-89
2022/07/24 02:32:16;;;;;;;;;;;31.70;37.30;;;;;;670631;29;1133;-88
2022/07/24 02:32:39;;;;;;;;;;;31.70;37.40;;;;;;670328;29;1357;-88
2022/07/24 02:33:00;;;;;;;;;;;31.70;37.40;;;;;;670212;29;1364;-90
2022/07/24 02:33:20;;;;;;;;;;;31.70;37.40;;;;;;672696;29;1403;-88
2022/07/24 02:33:41;;;;;;;;;;;31.70;37.40;;;;;;672386;29;1362;-88
2022/07/24 02:34:01;;;;;;;;;;;31.60;37.40;;;;;;670488;29;1154;-88
2022/07/24 02:34:22;;;;;;;;;;;31.70;37.40;;;;;;667713;29;1414;-88
2022/07/24 02:34:43;;;;;;;;;;;31.90;37.60;;;;;;665512;29;1336;-89
2022/07/24 02:35:06;;;;;;;;;;;31.70;38.30;;;;;;665158;29;1344;-88
2022/07/24 02:35:26;;;;;;;;;;;31.70;40.10;;;;;;668734;29;1414;-88
2022/07/24 02:35:47;;;;;;;;;;;31.70;37.40;;;;;;668522;29;1300;-89
2022/07/24 02:36:08;;;;;;;;;;;31.70;37.40;;;;;;670281;29;1285;-88
2022/07/24 02:36:29;;;;;;;;;;;31.70;37.40;;;;;;670078;29;1315;-88
2022/07/24 02:36:49;;;;;;;;;;;31.70;37.50;;;;;;669975;29;1181;-88
2022/07/24 02:37:10;;;;;;;;;;;31.70;37.50;;;;;;668357;29;831;-88
2022/07/24 02:37:31;;;;;;;;;;;31.70;37.50;;;;;;668210;29;1241;-88
2022/07/24 02:37:51;;;;;;;;;;;31.70;37.50;;;;;;668096;29;1226;-88